createdAt,value
2018-09-04T00:02:04.431Z,102294.77
2018-09-04T00:04:33.654Z,102298.31
2018-09-04T00:07:02.262Z,102293.95
2018-09-04T00:09:30.882Z,102293.95
2018-09-04T00:11:59.550Z,102290.95
2018-09-04T00:14:28.230Z,102286.25
2018-09-04T00:16:56.833Z,102276.38
2018-09-04T00:19:25.422Z,102281.59
2018-09-04T00:21:54.025Z,102284.83
2018-09-04T00:24:22.622Z,102286.60
2018-09-04T00:26:51.263Z,102286.23
2018-09-04T00:29:19.926Z,102279.86
2018-09-04T00:31:48.474Z,102287.06
2018-09-04T00:34:17.111Z,102287.06
2018-09-04T00:36:45.709Z,102287.92
2018-09-04T00:39:14.330Z,102290.09
2018-09-04T00:41:42.914Z,102291.41
2018-09-04T00:44:11.519Z,102294.81
2018-09-04T00:46:40.166Z,102300.08
2018-09-04T00:49:08.732Z,102294.81
2018-09-04T00:51:37.350Z,102299.25
2018-09-04T00:54:06.000Z,102290.86
2018-09-04T00:56:34.662Z,102292.13
2018-09-04T00:59:03.361Z,102295.45
2018-09-04T01:01:31.953Z,102291.97
2018-09-04T01:04:00.521Z,102285.84
2018-09-04T01:06:29.165Z,102276.38
2018-09-04T01:08:57.813Z,102288.48
2018-09-04T01:11:26.374Z,102280.58
2018-09-04T01:13:54.993Z,102280.89
2018-09-04T01:16:23.597Z,102275.71
2018-09-04T01:18:52.210Z,102277.09
2018-09-04T01:21:20.814Z,102280.73
2018-09-04T01:23:49.457Z,102282.96
2018-09-04T01:26:18.188Z,102278.25
2018-09-04T01:28:46.865Z,102283.60
2018-09-04T01:31:15.406Z,102285.92
2018-09-04T01:33:44.090Z,102280.27
2018-09-04T01:36:12.677Z,102278.09
2018-09-04T01:38:41.343Z,102283.66
2018-09-04T01:41:09.917Z,102283.20
2018-09-04T01:43:38.474Z,102280.66
2018-09-04T01:46:07.049Z,102276.86
2018-09-04T01:48:35.618Z,102279.49
2018-09-04T01:51:04.326Z,102276.98
2018-09-04T01:53:32.901Z,102275.27
2018-09-04T01:56:01.487Z,102281.08
2018-09-04T01:58:30.170Z,102278.98
2018-09-04T02:00:58.804Z,102266.89
2018-09-04T02:03:27.407Z,102271.24
2018-09-04T02:05:55.977Z,102275.56
2018-09-04T02:08:24.568Z,102276.11
2018-09-04T02:10:53.194Z,102276.20
2018-09-04T02:13:21.841Z,102271.85
2018-09-04T02:15:50.506Z,102272.30
2018-09-04T02:18:19.177Z,102273.93
2018-09-04T02:20:47.794Z,102276.97
2018-09-04T02:23:16.468Z,102277.05
2018-09-04T02:25:45.130Z,102278.52
2018-09-04T02:28:13.656Z,102282.06
2018-09-04T02:30:42.317Z,102285.70
2018-09-04T02:33:11.044Z,102291.97
2018-09-04T02:35:39.568Z,102288.16
2018-09-04T02:38:08.603Z,102285.13
2018-09-04T02:40:37.737Z,102284.13
2018-09-04T02:43:06.613Z,102285.94
2018-09-04T02:45:35.215Z,102277.23
2018-09-04T02:48:03.902Z,102283.82
2018-09-04T02:50:36.840Z,102278.09
2018-09-04T02:53:05.515Z,102272.38
2018-09-04T02:55:34.113Z,102272.83
2018-09-04T02:58:02.668Z,102266.26
2018-09-04T03:00:31.286Z,102272.83
2018-09-04T03:02:59.910Z,102274.55
2018-09-04T03:05:28.503Z,102273.69
2018-09-04T03:07:57.082Z,102270.15
2018-09-04T03:10:25.647Z,102272.23
2018-09-04T03:12:54.271Z,102274.46
2018-09-04T03:15:22.849Z,102267.52
2018-09-04T03:17:51.406Z,102265.80
2018-09-04T03:20:20.084Z,102262.77
2018-09-04T03:22:48.632Z,102264.17
2018-09-04T03:25:17.249Z,102260.83
2018-09-04T03:27:45.878Z,102265.95
2018-09-04T03:30:14.458Z,102261.59
2018-09-04T03:32:43.041Z,102260.23
2018-09-04T03:35:11.646Z,102263.77
2018-09-04T03:37:40.270Z,102263.72
2018-09-04T03:40:08.865Z,102257.14
2018-09-04T03:42:37.558Z,102255.37
2018-09-04T03:45:06.918Z,102255.73
2018-09-04T03:47:35.495Z,102257.45
2018-09-04T03:50:04.125Z,102254.42
2018-09-04T03:52:32.766Z,102252.73
2018-09-04T03:55:01.369Z,102250.62
2018-09-04T03:57:29.992Z,102253.25
2018-09-04T03:59:58.654Z,102256.34
2018-09-04T04:02:27.352Z,102252.39
2018-09-04T04:04:56.004Z,102249.30
2018-09-04T04:07:24.605Z,102247.53
2018-09-04T04:09:53.403Z,102250.25
2018-09-04T04:12:22.098Z,102251.08
2018-09-04T04:14:50.698Z,102252.02
2018-09-04T04:17:19.351Z,102246.36
2018-09-04T04:19:48.061Z,102244.13
2018-09-04T04:22:16.701Z,102246.30
2018-09-04T04:24:45.310Z,102233.20
2018-09-04T04:27:13.929Z,102230.58
2018-09-04T04:29:42.567Z,102228.80
2018-09-04T04:32:11.164Z,102231.44
2018-09-04T04:34:39.736Z,102228.80
2018-09-04T04:37:08.415Z,102232.29
2018-09-04T04:39:37.014Z,102234.92
2018-09-04T04:42:05.699Z,102236.61
2018-09-04T04:44:34.438Z,102237.16
2018-09-04T04:47:03.069Z,102241.09
2018-09-04T04:49:31.701Z,102240.64
2018-09-04T04:52:00.343Z,102241.50
2018-09-04T04:54:28.922Z,102241.05
2018-09-04T04:56:57.602Z,102236.15
2018-09-04T04:59:26.245Z,102243.98
2018-09-04T05:01:54.829Z,102239.64
2018-09-04T05:04:23.552Z,102249.25
2018-09-04T05:06:52.358Z,102250.62
2018-09-04T05:09:21.145Z,102256.42
2018-09-04T05:11:49.748Z,102246.91
2018-09-04T05:14:18.384Z,102248.31
2018-09-04T05:16:47.033Z,102254.03
2018-09-04T05:19:15.668Z,102255.41
2018-09-04T05:21:44.337Z,102249.46
2018-09-04T05:24:12.915Z,102250.78
2018-09-04T05:26:41.508Z,102250.54
2018-09-04T05:29:10.121Z,102253.72
2018-09-04T05:31:43.715Z,102249.77
2018-09-04T05:34:12.484Z,102255.41
2018-09-04T05:36:41.174Z,102257.17
2018-09-04T05:39:10.716Z,102261.98
2018-09-04T05:41:39.399Z,102256.66
2018-09-04T05:44:08.206Z,102260.98
2018-09-04T05:46:44.616Z,102257.98
2018-09-04T05:49:14.931Z,102252.72
2018-09-04T05:51:43.661Z,102256.80
2018-09-04T05:54:12.391Z,102261.52
2018-09-04T05:56:41.033Z,102260.61
2018-09-04T05:59:09.789Z,102257.89
2018-09-04T06:01:38.608Z,102256.57
2018-09-04T06:04:07.392Z,102257.66
2018-09-04T06:06:36.049Z,102258.91
2018-09-04T06:09:05.391Z,102263.17
2018-09-04T06:11:34.086Z,102268.28
2018-09-04T06:14:02.793Z,102270.46
2018-09-04T06:16:31.787Z,102271.69
2018-09-04T06:19:00.443Z,102276.89
2018-09-04T06:21:29.078Z,102272.94
2018-09-04T06:23:57.762Z,102267.37
2018-09-04T06:26:26.386Z,102268.36
2018-09-04T06:28:54.979Z,102259.70
2018-09-04T06:31:23.623Z,102260.86
2018-09-04T06:33:52.419Z,102266.84
2018-09-04T06:36:21.334Z,102268.98
2018-09-04T06:38:50.053Z,102268.52
2018-09-04T06:41:18.675Z,102265.28
2018-09-04T06:43:47.363Z,102254.91
2018-09-04T06:46:15.999Z,102268.62
2018-09-04T06:48:44.611Z,102266.45
2018-09-04T06:51:13.198Z,102271.59
2018-09-04T06:53:41.753Z,102270.50
2018-09-04T06:56:10.369Z,102258.50
2018-09-04T06:58:38.964Z,102258.75
2018-09-04T07:01:07.629Z,102255.02
2018-09-04T07:03:36.299Z,102257.95
2018-09-04T07:06:05.269Z,102261.30
2018-09-04T07:08:33.917Z,102259.98
2018-09-04T07:11:02.586Z,102261.20
2018-09-04T07:13:31.249Z,102256.09
2018-09-04T07:15:59.854Z,102259.52
2018-09-04T07:18:28.478Z,102261.70
2018-09-04T07:20:57.130Z,102260.90
2018-09-04T07:23:25.925Z,102268.95
2018-09-04T07:25:54.520Z,102273.45
2018-09-04T07:28:23.330Z,102272.68
2018-09-04T07:30:52.016Z,102271.61
2018-09-04T07:33:20.764Z,102268.63
2018-09-04T07:35:49.385Z,102269.27
2018-09-04T07:38:18.041Z,102270.28
2018-09-04T07:40:46.681Z,102277.78
2018-09-04T07:43:16.112Z,102277.84
2018-09-04T07:45:45.044Z,102280.92
2018-09-04T07:48:13.957Z,102280.92
2018-09-04T07:50:42.636Z,102271.86
2018-09-04T07:53:11.251Z,102280.07
2018-09-04T07:55:39.850Z,102283.05
2018-09-04T07:58:08.513Z,102273.18
2018-09-04T08:00:37.173Z,102278.18
2018-09-04T08:03:05.884Z,102279.41
2018-09-04T08:05:34.535Z,102279.71
2018-09-04T08:08:03.227Z,102285.75
2018-09-04T08:10:35.445Z,102283.77
2018-09-04T08:13:06.266Z,102288.33
2018-09-04T08:15:35.221Z,102285.76
2018-09-04T08:18:04.231Z,102289.01
2018-09-04T08:20:32.980Z,102283.89
2018-09-04T08:23:01.517Z,102292.75
2018-09-04T08:25:30.187Z,102286.67
2018-09-04T08:27:58.852Z,102294.17
2018-09-04T08:30:27.497Z,102295.58
2018-09-04T08:32:56.145Z,102286.66
2018-09-04T08:35:24.692Z,102286.25
2018-09-04T08:37:58.559Z,102286.48
2018-09-04T08:40:27.261Z,102283.90
2018-09-04T08:42:55.931Z,102273.66
2018-09-04T08:45:24.561Z,102276.97
2018-09-04T08:47:53.201Z,102281.45
2018-09-04T08:50:21.788Z,102276.78
2018-09-04T08:52:50.433Z,102280.41
2018-09-04T08:55:19.138Z,102278.36
2018-09-04T08:57:47.758Z,102275.00
2018-09-04T09:00:16.389Z,102283.64
2018-09-04T09:02:45.018Z,102283.30
2018-09-04T09:05:13.655Z,102275.16
2018-09-04T09:07:42.253Z,102279.99
2018-09-04T09:10:10.930Z,102274.44
2018-09-04T09:12:39.607Z,102278.06
2018-09-04T09:15:08.225Z,102282.05
2018-09-04T09:17:36.828Z,102280.09
2018-09-04T09:20:05.598Z,102279.81
2018-09-04T09:22:34.269Z,102275.68
2018-09-04T09:25:02.913Z,102271.77
2018-09-04T09:27:31.627Z,102277.09
2018-09-04T09:30:00.281Z,102278.92
2018-09-04T09:32:28.935Z,102273.92
2018-09-04T09:34:57.514Z,102274.03
2018-09-04T09:37:26.158Z,102270.65
2018-09-04T09:39:54.823Z,102271.80
2018-09-04T09:42:23.496Z,102271.69
2018-09-04T09:44:52.121Z,102266.62
2018-09-04T09:47:20.739Z,102267.66
2018-09-04T09:49:49.430Z,102269.08
2018-09-04T09:52:18.135Z,102272.68
2018-09-04T09:54:46.806Z,102271.93
2018-09-04T09:57:15.514Z,102269.96
2018-09-04T09:59:44.094Z,102265.59
2018-09-04T10:02:17.809Z,102268.34
2018-09-04T10:04:46.426Z,102262.69
2018-09-04T10:07:15.137Z,102269.28
2018-09-04T10:09:43.790Z,102261.55
2018-09-04T10:12:12.481Z,102265.65
2018-09-04T10:14:41.118Z,102271.03
2018-09-04T10:17:10.069Z,102266.30
2018-09-04T10:19:38.679Z,102270.66
2018-09-04T10:22:07.482Z,102271.79
2018-09-04T10:24:36.119Z,102271.22
2018-09-04T10:27:04.829Z,102274.30
2018-09-04T10:29:33.425Z,102269.29
2018-09-04T10:32:02.185Z,102275.17
2018-09-04T10:34:30.851Z,102270.98
2018-09-04T10:36:59.485Z,102273.82
2018-09-04T10:39:33.325Z,102267.37
2018-09-04T10:42:01.897Z,102276.36
2018-09-04T10:44:32.524Z,102268.11
2018-09-04T10:47:01.739Z,102272.00
2018-09-04T10:49:30.386Z,102274.73
2018-09-04T10:51:59.021Z,102274.97
2018-09-04T10:54:27.714Z,102274.47
2018-09-04T10:56:56.402Z,102271.81
2018-09-04T10:59:24.968Z,102270.87
2018-09-04T11:01:53.675Z,102267.70
2018-09-04T11:04:22.252Z,102265.59
2018-09-04T11:06:50.990Z,102258.19
2018-09-04T11:09:19.699Z,102254.66
2018-09-04T11:11:48.277Z,102248.84
2018-09-04T11:14:17.065Z,102250.05
2018-09-04T11:16:45.650Z,102256.97
2018-09-04T11:19:14.329Z,102254.59
2018-09-04T11:21:42.931Z,102256.27
2018-09-04T11:24:11.539Z,102260.83
2018-09-04T11:26:40.226Z,102259.51
2018-09-04T11:29:09.853Z,102259.77
2018-09-04T11:31:38.497Z,102260.42
2018-09-04T11:34:07.115Z,102265.66
2018-09-04T11:36:35.726Z,102258.95
2018-09-04T11:39:05.069Z,102255.69
2018-09-04T11:41:33.693Z,102252.88
2018-09-04T11:44:02.333Z,102255.06
2018-09-04T11:46:31.005Z,102258.78
2018-09-04T11:48:59.647Z,102257.66
2018-09-04T11:51:28.293Z,102249.53
2018-09-04T11:53:56.955Z,102253.82
2018-09-04T11:56:25.599Z,102247.72
2018-09-04T11:58:54.250Z,102251.91
2018-09-04T12:01:26.772Z,102248.59
2018-09-04T12:03:55.582Z,102250.81
2018-09-04T12:06:24.345Z,102242.42
2018-09-04T12:08:53.054Z,102248.07
2018-09-04T12:11:21.666Z,102240.80
2018-09-04T12:13:50.309Z,102244.83
2018-09-04T12:16:19.006Z,102245.81
2018-09-04T12:18:47.744Z,102249.84
2018-09-04T12:21:16.590Z,102244.92
2018-09-04T12:23:45.305Z,102239.41
2018-09-04T12:26:13.982Z,102244.80
2018-09-04T12:28:42.615Z,102240.47
2018-09-04T12:31:11.338Z,102243.47
2018-09-04T12:33:39.967Z,102239.50
2018-09-04T12:36:08.673Z,102243.38
2018-09-04T12:38:38.846Z,102240.30
2018-09-04T12:41:12.886Z,102243.11
2018-09-04T12:43:41.554Z,102239.61
2018-09-04T12:46:10.184Z,102237.46
2018-09-04T12:48:38.933Z,102239.40
2018-09-04T12:51:07.674Z,102245.81
2018-09-04T12:53:36.553Z,102239.45
2018-09-04T12:56:05.257Z,102243.08
2018-09-04T12:58:33.861Z,102239.41
2018-09-04T13:01:02.480Z,102240.02
2018-09-04T13:03:31.101Z,102241.72
2018-09-04T13:06:00.252Z,102240.98
2018-09-04T13:08:30.389Z,102233.62
2018-09-04T13:10:59.071Z,102236.62
2018-09-04T13:13:28.025Z,102239.36
2018-09-04T13:15:58.159Z,102236.89
2018-09-04T13:18:27.716Z,102238.47
2018-09-04T13:21:01.265Z,102236.11
2018-09-04T13:23:30.141Z,102237.66
2018-09-04T13:25:58.804Z,102236.40
2018-09-04T13:28:27.970Z,102234.25
2018-09-04T13:30:56.610Z,102232.70
2018-09-04T13:33:25.184Z,102228.87
2018-09-04T13:35:53.829Z,102221.53
2018-09-04T13:38:22.475Z,102226.94
2018-09-04T13:40:55.214Z,102229.47
2018-09-04T13:43:23.825Z,102232.60
2018-09-04T13:45:52.474Z,102234.63
2018-09-04T13:48:25.277Z,102231.02
2018-09-04T13:50:53.935Z,102230.80
2018-09-04T13:53:22.548Z,102227.16
2018-09-04T13:55:51.306Z,102228.73
2018-09-04T13:58:54.699Z,102229.97
2018-09-04T14:01:23.372Z,102228.14
2018-09-04T14:03:52.096Z,102226.88
2018-09-04T14:06:20.803Z,102224.55
2018-09-04T14:08:49.569Z,102220.78
2018-09-04T14:11:18.253Z,102232.48
2018-09-04T14:13:46.976Z,102222.40
2018-09-04T14:16:17.878Z,102221.64
2018-09-04T14:18:46.560Z,102226.16
2018-09-04T14:21:15.203Z,102224.30
2018-09-04T14:23:43.869Z,102223.00
2018-09-04T14:26:12.556Z,102217.59
2018-09-04T14:28:41.578Z,102214.96
2018-09-04T14:31:10.023Z,102216.79
2018-09-04T14:33:38.760Z,102219.82
2018-09-04T14:36:07.512Z,102228.45
2018-09-04T14:38:36.176Z,102229.08
2018-09-04T14:41:05.293Z,102222.28
2018-09-04T14:43:34.013Z,102219.95
2018-09-04T14:46:02.827Z,102222.35
2018-09-04T14:48:31.504Z,102219.39
2018-09-04T14:51:00.172Z,102225.38
2018-09-04T14:53:28.887Z,102216.55
2018-09-04T14:55:58.262Z,102225.11
2018-09-04T14:58:26.937Z,102220.91
2018-09-04T15:00:55.631Z,102220.17
2018-09-04T15:03:24.400Z,102227.44
2018-09-04T15:05:53.894Z,102220.91
2018-09-04T15:08:22.533Z,102219.70
2018-09-04T15:10:51.211Z,102213.20
2018-09-04T15:13:19.983Z,102217.43
2018-09-04T15:15:48.699Z,102216.69
2018-09-04T15:18:17.322Z,102212.56
2018-09-04T15:20:46.001Z,102223.23
2018-09-04T15:23:14.636Z,102218.77
2018-09-04T15:25:43.365Z,102219.21
2018-09-04T15:28:12.001Z,102220.70
2018-09-04T15:30:40.663Z,102214.05
2018-09-04T15:33:09.990Z,102216.23
2018-09-04T15:35:38.956Z,102211.25
2018-09-04T15:38:07.812Z,102213.27
2018-09-04T15:40:36.566Z,102215.66
2018-09-04T15:43:05.340Z,102213.92
2018-09-04T15:45:34.209Z,102214.72
2018-09-04T15:48:02.920Z,102217.53
2018-09-04T15:50:31.706Z,102210.50
2018-09-04T15:53:00.416Z,102220.02
2018-09-04T15:55:29.160Z,102220.17
2018-09-04T15:57:58.223Z,102223.69
2018-09-04T16:00:26.804Z,102221.88
2018-09-04T16:02:56.206Z,102228.64
2018-09-04T16:05:25.035Z,102226.42
2018-09-04T16:07:53.764Z,102221.91
2018-09-04T16:10:22.696Z,102224.30
2018-09-04T16:12:51.359Z,102218.72
2018-09-04T16:15:20.086Z,102224.15
2018-09-04T16:17:49.034Z,102225.45
2018-09-04T16:20:17.775Z,102228.02
2018-09-04T16:22:46.510Z,102220.95
2018-09-04T16:25:15.260Z,102222.97
2018-09-04T16:27:44.035Z,102224.91
2018-09-04T16:30:12.768Z,102227.20
2018-09-04T16:32:41.488Z,102229.86
2018-09-04T16:35:10.513Z,102226.37
2018-09-04T16:37:39.175Z,102227.59
2018-09-04T16:40:07.923Z,102227.20
2018-09-04T16:42:36.674Z,102227.42
2018-09-04T16:45:05.660Z,102226.06
2018-09-04T16:47:34.372Z,102216.94
2018-09-04T16:50:03.072Z,102215.97
2018-09-04T16:52:31.796Z,102221.91
2018-09-04T16:55:00.571Z,102220.53
2018-09-04T16:57:29.383Z,102223.09
2018-09-04T16:59:58.041Z,102216.83
2018-09-04T17:02:26.788Z,102214.62
2018-09-04T17:04:55.525Z,102218.81
2018-09-04T17:07:24.216Z,102213.55
2018-09-04T17:09:53.034Z,102213.75
2018-09-04T17:12:21.896Z,102219.02
2018-09-04T17:14:50.604Z,102217.55
2018-09-04T17:17:19.691Z,102217.31
2018-09-04T17:19:48.469Z,102218.14
2018-09-04T17:22:17.272Z,102217.62
2018-09-04T17:24:46.041Z,102219.08
2018-09-04T17:27:14.839Z,102221.64
2018-09-04T17:29:43.492Z,102225.61
2018-09-04T17:32:12.212Z,102226.91
2018-09-04T17:34:41.475Z,102222.67
2018-09-04T17:37:10.156Z,102225.76
2018-09-04T17:39:38.820Z,102221.83
2018-09-04T17:42:07.504Z,102219.14
2018-09-04T17:44:36.231Z,102223.58
2018-09-04T17:47:04.971Z,102221.19
2018-09-04T17:49:33.713Z,102218.49
2018-09-04T17:52:03.077Z,102227.38
2018-09-04T17:54:31.805Z,102218.13
2018-09-04T17:57:00.555Z,102221.55
2018-09-04T17:59:29.448Z,102222.36
2018-09-04T18:01:58.376Z,102221.25
2018-09-04T18:04:27.083Z,102228.20
2018-09-04T18:06:55.873Z,102230.67
2018-09-04T18:09:24.638Z,102230.06
2018-09-04T18:11:53.382Z,102235.56
2018-09-04T18:14:22.350Z,102230.48
2018-09-04T18:16:51.178Z,102227.64
2018-09-04T18:19:20.420Z,102228.83
2018-09-04T18:21:49.245Z,102228.12
2018-09-04T18:24:18.090Z,102233.82
2018-09-04T18:26:46.921Z,102226.67
2018-09-04T18:29:15.801Z,102227.84
2018-09-04T18:31:44.603Z,102237.13
2018-09-04T18:34:13.297Z,102235.86
2018-09-04T18:36:41.992Z,102230.95
2018-09-04T18:39:10.707Z,102233.62
2018-09-04T18:41:39.412Z,102232.30
2018-09-04T18:44:08.108Z,102237.05
2018-09-04T18:46:36.827Z,102238.42
2018-09-04T18:49:05.735Z,102240.71
2018-09-04T18:51:34.306Z,102249.04
2018-09-04T18:54:02.964Z,102253.98
2018-09-04T18:56:31.652Z,102257.12
2018-09-04T18:59:00.321Z,102257.96
2018-09-04T19:01:29.553Z,102261.84
2018-09-04T19:03:58.821Z,102269.34
2018-09-04T19:06:31.587Z,102274.14
2018-09-04T19:09:00.414Z,102274.98
2018-09-04T19:11:29.409Z,102279.67
2018-09-04T19:13:58.218Z,102282.14
2018-09-04T19:16:26.913Z,102281.08
2018-09-04T19:18:55.570Z,102284.02
2018-09-04T19:21:24.360Z,102286.48
2018-09-04T19:23:53.537Z,102288.92
2018-09-04T19:26:22.240Z,102291.75
2018-09-04T19:28:50.945Z,102293.75
2018-09-04T19:31:19.728Z,102287.33
2018-09-04T19:33:48.454Z,102300.53
2018-09-04T19:36:17.257Z,102296.83
2018-09-04T19:38:45.949Z,102296.83
2018-09-04T19:41:14.653Z,102294.65
2018-09-04T19:43:43.363Z,102299.11
2018-09-04T19:46:12.044Z,102295.69
2018-09-04T19:48:40.715Z,102300.14
2018-09-04T19:51:09.414Z,102304.58
2018-09-04T19:53:38.156Z,102305.50
2018-09-04T19:56:07.000Z,102307.78
2018-09-04T19:58:35.691Z,102312.57
2018-09-04T20:01:04.556Z,102312.11
2018-09-04T20:03:33.320Z,102312.11
2018-09-04T20:06:02.017Z,102320.89
2018-09-04T20:08:30.814Z,102331.36
2018-09-04T20:10:59.768Z,102327.03
2018-09-04T20:13:28.620Z,102322.86
2018-09-04T20:15:57.408Z,102329.64
2018-09-04T20:18:26.283Z,102331.06
2018-09-04T20:20:55.126Z,102330.59
2018-09-04T20:23:24.149Z,102331.45
2018-09-04T20:25:52.974Z,102334.56
2018-09-04T20:28:21.895Z,102340.70
2018-09-04T20:30:50.700Z,102333.70
2018-09-04T20:33:19.650Z,102335.03
2018-09-04T20:35:48.478Z,102340.02
2018-09-04T20:38:17.583Z,102341.70
2018-09-04T20:40:46.541Z,102340.48
2018-09-04T20:43:15.235Z,102343.59
2018-09-04T20:45:43.962Z,102347.55
2018-09-04T20:48:12.666Z,102351.05
2018-09-04T20:50:41.475Z,102355.59
2018-09-04T20:53:10.271Z,102354.05
2018-09-04T20:55:39.033Z,102346.86
2018-09-04T20:58:18.657Z,102357.14
2018-09-04T21:00:58.383Z,102350.70
2018-09-04T21:03:38.202Z,102347.59
2018-09-04T21:06:17.854Z,102344.50
2018-09-04T21:10:59.700Z,102348.53
2018-09-04T21:13:28.385Z,102344.09
2018-09-04T21:15:57.140Z,102350.69
2018-09-04T21:18:25.881Z,102346.73
2018-09-04T21:20:54.690Z,102344.55
2018-09-04T21:23:23.620Z,102344.66
2018-09-04T21:25:52.351Z,102351.33
2018-09-04T21:28:21.008Z,102355.85
2018-09-04T21:30:49.719Z,102355.45
2018-09-04T21:33:18.388Z,102354.23
2018-09-04T21:35:47.049Z,102351.20
2018-09-04T21:38:15.819Z,102350.64
2018-09-04T21:40:44.461Z,102350.28
2018-09-04T21:43:13.101Z,102348.50
2018-09-04T21:45:41.760Z,102343.75
2018-09-04T21:48:10.448Z,102343.75
2018-09-04T21:50:39.131Z,102344.60
2018-09-04T21:53:07.868Z,102348.95
2018-09-04T21:55:36.611Z,102353.45
2018-09-04T21:58:05.520Z,102347.77
2018-09-04T22:00:34.259Z,102350.02
2018-09-04T22:03:02.952Z,102354.84
2018-09-04T22:05:31.612Z,102349.56
2018-09-04T22:08:00.987Z,102353.05
2018-09-04T22:10:29.643Z,102346.39
2018-09-04T22:12:58.307Z,102347.24
2018-09-04T22:15:27.003Z,102348.56
2018-09-04T22:17:55.676Z,102350.81
2018-09-04T22:20:24.548Z,102351.30
2018-09-04T22:22:54.029Z,102352.30
2018-09-04T22:25:22.789Z,102351.05
2018-09-04T22:27:51.506Z,102358.50
2018-09-04T22:30:20.344Z,102354.55
2018-09-04T22:32:49.024Z,102356.63
2018-09-04T22:35:17.691Z,102360.98
2018-09-04T22:37:46.461Z,102362.30
2018-09-04T22:40:15.140Z,102371.54
2018-09-04T22:42:43.772Z,102364.88
2018-09-04T22:45:12.476Z,102371.41
2018-09-04T22:47:42.044Z,102369.62
2018-09-04T22:50:15.832Z,102366.58
2018-09-04T22:52:44.508Z,102364.80
2018-09-04T22:55:14.044Z,102362.63
2018-09-04T22:57:43.680Z,102365.66
2018-09-04T23:00:13.458Z,102362.06
2018-09-04T23:02:42.177Z,102362.91
2018-09-04T23:05:11.012Z,102362.91
2018-09-04T23:07:40.308Z,102362.91
2018-09-04T23:10:09.116Z,102367.73
2018-09-04T23:12:37.778Z,102360.27
2018-09-04T23:15:06.537Z,102361.59
2018-09-04T23:17:35.227Z,102361.59
2018-09-04T23:20:04.020Z,102356.42
2018-09-04T23:22:32.692Z,102364.88
2018-09-04T23:25:01.358Z,102360.05
2018-09-04T23:27:30.057Z,102359.66
2018-09-04T23:29:58.748Z,102365.50
2018-09-04T23:32:27.432Z,102360.00
2018-09-04T23:34:56.124Z,102371.12
2018-09-04T23:37:24.820Z,102363.83
2018-09-04T23:39:53.518Z,102363.14
2018-09-04T23:42:22.280Z,102364.10
2018-09-04T23:44:50.956Z,102362.55
2018-09-04T23:47:19.644Z,102360.17
2018-09-04T23:49:48.303Z,102364.01
2018-09-04T23:52:16.992Z,102358.99
2018-09-04T23:54:46.029Z,102358.30
2018-09-04T23:57:14.725Z,102363.34
2018-09-04T23:59:43.388Z,102360.11
